createdAt,value
2019-05-22T00:00:27.713Z,5.85
2019-05-22T00:02:54.677Z,8.18
2019-05-22T00:05:33.672Z,8.30
2019-05-22T00:08:00.792Z,10.65
2019-05-22T00:10:28.452Z,5.65
2019-05-22T00:12:54.421Z,9.28
2019-05-22T00:15:21.594Z,4.35
2019-05-22T00:17:49.312Z,5.17
2019-05-22T00:20:15.815Z,6.12
2019-05-22T00:22:43.729Z,5.45
2019-05-22T00:25:14.349Z,4.10
2019-05-22T00:27:40.210Z,6.80
2019-05-22T00:30:06.008Z,3.62
2019-05-22T00:32:33.667Z,10.40
2019-05-22T00:34:59.712Z,8.40
2019-05-22T00:37:25.553Z,5.28
2019-05-22T00:39:52.252Z,8.40
2019-05-22T00:42:18.417Z,9.13
2019-05-22T00:44:46.508Z,6.60
2019-05-22T00:47:13.536Z,7.35
2019-05-22T00:49:39.882Z,8.63
2019-05-22T00:52:20.185Z,5.28
2019-05-22T00:54:51.568Z,10.38
2019-05-22T00:57:28.245Z,7.67
2019-05-22T00:59:56.012Z,3.95
2019-05-22T01:02:26.800Z,6.12
2019-05-22T01:04:53.739Z,6.40
2019-05-22T01:07:21.481Z,6.87
2019-05-22T01:09:48.249Z,4.05
2019-05-22T01:12:19.214Z,6.25
2019-05-22T01:14:45.085Z,7.85
2019-05-22T01:17:12.109Z,6.30
2019-05-22T01:19:38.920Z,3.33
2019-05-22T01:22:05.869Z,6.25
2019-05-22T01:24:32.781Z,6.70
2019-05-22T01:26:59.827Z,8.40
2019-05-22T01:29:26.781Z,11.12
2019-05-22T01:32:12.632Z,8.60
2019-05-22T01:34:38.881Z,5.47
2019-05-22T01:37:06.501Z,7.25
2019-05-22T01:39:51.529Z,6.12
2019-05-22T01:42:19.666Z,8.25
2019-05-22T01:44:59.862Z,9.58
2019-05-22T01:47:17.033Z,8.73
2019-05-22T01:49:47.914Z,8.00
2019-05-22T01:52:15.624Z,6.05
2019-05-22T01:54:42.570Z,8.73
2019-05-22T01:57:10.185Z,9.63
2019-05-22T01:59:36.146Z,9.33
2019-05-22T02:02:03.792Z,9.98
2019-05-22T02:04:30.205Z,12.35
2019-05-22T02:06:57.630Z,11.70
2019-05-22T02:09:27.293Z,13.48
2019-05-22T02:11:53.885Z,9.25
2019-05-22T02:14:19.802Z,11.43
2019-05-22T02:16:55.911Z,11.25
2019-05-22T02:19:15.894Z,10.65
2019-05-22T02:21:43.901Z,10.68
2019-05-22T02:24:11.218Z,13.03
2019-05-22T02:26:38.901Z,5.72
2019-05-22T02:29:05.839Z,7.33
2019-05-22T02:31:33.557Z,4.37
2019-05-22T02:34:08.728Z,5.00
2019-05-22T02:36:36.472Z,4.12
2019-05-22T02:39:04.546Z,5.83
2019-05-22T02:41:34.204Z,7.00
2019-05-22T02:44:00.522Z,6.62
2019-05-22T02:46:26.448Z,5.85
2019-05-22T02:48:52.263Z,6.53
2019-05-22T02:51:18.114Z,9.43
2019-05-22T02:53:43.923Z,9.98
2019-05-22T02:56:10.661Z,6.87
2019-05-22T02:58:36.481Z,11.05
2019-05-22T03:01:02.374Z,15.48
2019-05-22T03:03:30.081Z,12.88
2019-05-22T03:05:55.925Z,11.83
2019-05-22T03:08:24.341Z,10.65
2019-05-22T03:10:50.188Z,11.43
2019-05-22T03:13:15.985Z,9.80
2019-05-22T03:15:42.454Z,7.83
2019-05-22T03:18:09.765Z,27.20
2019-05-22T03:20:36.479Z,17.77
2019-05-22T03:23:20.885Z,15.78
2019-05-22T03:25:47.106Z,12.75
2019-05-22T03:28:13.222Z,11.48
2019-05-22T03:30:39.489Z,18.80
2019-05-22T03:33:06.438Z,11.83
2019-05-22T03:35:46.788Z,10.85
2019-05-22T03:38:13.215Z,11.63
2019-05-22T03:40:40.126Z,12.65
2019-05-22T03:43:10.929Z,10.85
2019-05-22T03:45:38.749Z,8.38
2019-05-22T03:48:05.761Z,10.20
2019-05-22T03:50:32.033Z,15.13
2019-05-22T03:52:59.745Z,8.10
2019-05-22T03:55:26.050Z,10.10
2019-05-22T03:57:51.977Z,9.93
2019-05-22T04:00:19.023Z,11.03
2019-05-22T04:02:46.741Z,11.60
2019-05-22T04:05:13.286Z,11.73
2019-05-22T04:07:40.397Z,8.43
2019-05-22T04:10:07.732Z,6.80
2019-05-22T04:12:33.558Z,9.73
2019-05-22T04:14:59.574Z,7.17
2019-05-22T04:17:27.031Z,8.63
2019-05-22T04:19:52.985Z,7.55
2019-05-22T04:22:19.333Z,6.25
2019-05-22T04:24:45.314Z,8.83
2019-05-22T04:27:11.872Z,6.05
2019-05-22T04:29:38.066Z,7.65
2019-05-22T04:32:06.040Z,10.68
2019-05-22T04:34:31.884Z,4.33
2019-05-22T04:36:58.189Z,9.43
2019-05-22T04:39:26.801Z,10.20
2019-05-22T04:41:53.270Z,7.08
2019-05-22T04:44:20.034Z,4.87
2019-05-22T04:46:46.137Z,12.33
2019-05-22T04:49:12.885Z,9.20
2019-05-22T04:51:38.697Z,6.15
2019-05-22T04:54:04.544Z,10.35
2019-05-22T04:56:30.359Z,8.98
2019-05-22T04:58:57.029Z,7.85
2019-05-22T05:01:23.289Z,5.58
2019-05-22T05:03:49.577Z,5.05
2019-05-22T05:06:17.350Z,2.45
2019-05-22T05:08:43.872Z,4.10
2019-05-22T05:11:10.627Z,3.42
2019-05-22T05:13:36.803Z,4.28
2019-05-22T05:16:03.978Z,4.60
2019-05-22T05:18:29.773Z,7.05
2019-05-22T05:20:55.608Z,6.78
2019-05-22T05:23:21.333Z,5.40
2019-05-22T05:25:47.288Z,5.45
2019-05-22T05:28:13.588Z,8.38
2019-05-22T05:30:39.613Z,11.65
2019-05-22T05:33:05.733Z,10.25
2019-05-22T05:35:32.074Z,4.10
2019-05-22T05:37:58.480Z,11.85
2019-05-22T05:40:25.315Z,5.58
2019-05-22T05:42:51.833Z,6.65
2019-05-22T05:45:17.673Z,6.58
2019-05-22T05:47:43.497Z,11.55
2019-05-22T05:50:11.154Z,9.58
2019-05-22T05:52:37.564Z,10.70
2019-05-22T05:55:04.774Z,6.83
2019-05-22T05:57:36.064Z,7.10
2019-05-22T06:00:03.859Z,6.95
2019-05-22T06:02:29.630Z,7.22
2019-05-22T06:04:55.687Z,4.97
2019-05-22T06:07:21.520Z,11.22
2019-05-22T06:09:49.461Z,7.30
2019-05-22T06:12:15.213Z,9.13
2019-05-22T06:14:41.013Z,6.97
2019-05-22T06:17:25.787Z,4.03
2019-05-22T06:19:54.005Z,7.45
2019-05-22T06:22:21.131Z,10.40
2019-05-22T06:24:48.872Z,11.75
2019-05-22T06:27:16.492Z,12.20
2019-05-22T06:29:51.604Z,10.13
2019-05-22T06:32:36.884Z,11.57
2019-05-22T06:35:03.017Z,7.95
2019-05-22T06:37:47.801Z,5.97
2019-05-22T06:40:14.146Z,8.25
2019-05-22T06:42:41.864Z,7.92
2019-05-22T06:45:07.846Z,8.25
2019-05-22T06:47:33.816Z,10.80
2019-05-22T06:49:59.866Z,12.10
2019-05-22T06:52:25.775Z,12.80
2019-05-22T06:54:51.590Z,13.40
2019-05-22T06:57:19.333Z,9.83
2019-05-22T06:59:46.148Z,10.43
2019-05-22T07:02:12.620Z,14.18
2019-05-22T07:04:39.109Z,8.95
2019-05-22T07:07:05.500Z,14.15
2019-05-22T07:09:32.648Z,13.03
2019-05-22T07:11:59.197Z,14.95
2019-05-22T07:14:26.604Z,16.05
2019-05-22T07:16:52.445Z,10.38
2019-05-22T07:19:19.936Z,10.45
2019-05-22T07:21:47.657Z,10.70
2019-05-22T07:24:13.466Z,17.52
2019-05-22T07:26:41.218Z,11.35
2019-05-22T07:29:08.026Z,10.58
2019-05-22T07:31:35.170Z,13.35
2019-05-22T07:34:01.080Z,11.97
2019-05-22T07:36:27.023Z,10.05
2019-05-22T07:38:53.117Z,8.63
2019-05-22T07:41:18.965Z,15.78
2019-05-22T07:43:44.772Z,11.50
2019-05-22T07:46:10.901Z,15.70
2019-05-22T07:48:36.730Z,13.22
2019-05-22T07:51:03.238Z,10.30
2019-05-22T07:53:29.083Z,18.35
2019-05-22T07:55:55.785Z,13.30
2019-05-22T07:58:22.216Z,12.20
2019-05-22T08:00:50.255Z,8.25
2019-05-22T08:03:16.372Z,8.93
2019-05-22T08:05:44.664Z,14.60
2019-05-22T08:08:11.501Z,11.48
2019-05-22T08:10:37.309Z,10.23
2019-05-22T08:13:03.496Z,9.05
2019-05-22T08:15:29.989Z,16.93
2019-05-22T08:17:55.828Z,15.40
2019-05-22T08:20:21.641Z,10.78
2019-05-22T08:22:48.432Z,9.68
2019-05-22T08:25:14.453Z,7.67
2019-05-22T08:27:40.897Z,8.60
2019-05-22T08:30:08.510Z,13.75
2019-05-22T08:32:37.917Z,11.33
2019-05-22T08:35:06.231Z,9.23
2019-05-22T08:37:32.781Z,12.63
2019-05-22T08:39:58.623Z,17.42
2019-05-22T08:42:24.829Z,15.00
2019-05-22T08:44:50.677Z,11.53
2019-05-22T08:47:16.481Z,17.98
2019-05-22T08:49:42.625Z,15.85
2019-05-22T08:52:22.539Z,14.43
2019-05-22T08:54:37.578Z,16.57
2019-05-22T08:57:03.481Z,15.58
2019-05-22T08:59:29.317Z,13.75
2019-05-22T09:01:55.227Z,11.88
2019-05-22T09:04:21.274Z,7.22
2019-05-22T09:06:47.337Z,7.47
2019-05-22T09:09:13.279Z,8.98
2019-05-22T09:11:39.091Z,10.85
2019-05-22T09:14:05.190Z,9.03
2019-05-22T09:16:31.903Z,8.65
2019-05-22T09:18:58.461Z,12.88
2019-05-22T09:21:24.874Z,12.68
2019-05-22T09:23:51.446Z,13.83
2019-05-22T09:26:17.863Z,11.60
2019-05-22T09:28:44.122Z,17.65
2019-05-22T09:31:10.217Z,16.55
2019-05-22T09:33:36.025Z,12.28
2019-05-22T09:36:02.081Z,9.88
2019-05-22T09:38:28.673Z,9.03
2019-05-22T09:40:54.609Z,14.85
2019-05-22T09:43:20.421Z,17.75
2019-05-22T09:45:46.280Z,11.50
2019-05-22T09:48:12.077Z,10.95
2019-05-22T09:50:38.544Z,8.50
2019-05-22T09:53:04.541Z,10.70
2019-05-22T09:55:31.279Z,21.40
2019-05-22T09:57:57.095Z,16.90
2019-05-22T10:00:23.232Z,11.53
2019-05-22T10:02:49.033Z,11.28
2019-05-22T10:05:15.485Z,15.05
2019-05-22T10:07:57.664Z,16.25
2019-05-22T10:10:09.245Z,14.98
2019-05-22T10:12:35.065Z,10.30
2019-05-22T10:15:01.543Z,11.85
2019-05-22T10:17:28.038Z,10.08
2019-05-22T10:19:55.165Z,9.93
2019-05-22T10:22:21.377Z,13.05
2019-05-22T10:24:50.106Z,11.85
2019-05-22T10:27:15.443Z,10.60
2019-05-22T10:29:41.367Z,14.28
2019-05-22T10:32:08.457Z,10.08
2019-05-22T10:34:34.268Z,10.43
2019-05-22T10:37:00.222Z,8.48
2019-05-22T10:39:26.321Z,11.40
2019-05-22T10:41:52.448Z,9.20
2019-05-22T10:44:18.461Z,6.47
2019-05-22T10:46:44.694Z,6.47
2019-05-22T10:49:10.510Z,10.38
2019-05-22T10:51:36.349Z,8.48
2019-05-22T10:54:02.560Z,8.70
2019-05-22T10:56:28.512Z,10.82
2019-05-22T10:58:54.238Z,12.70
2019-05-22T11:01:20.287Z,8.30
2019-05-22T11:03:46.553Z,9.70
2019-05-22T11:06:12.394Z,16.75
2019-05-22T11:08:39.028Z,17.23
2019-05-22T11:11:05.773Z,12.33
2019-05-22T11:13:34.241Z,9.58
2019-05-22T11:16:00.038Z,7.87
2019-05-22T11:18:25.957Z,8.83
2019-05-22T11:20:51.794Z,5.87
2019-05-22T11:23:17.901Z,7.58
2019-05-22T11:25:43.719Z,5.58
2019-05-22T11:28:09.565Z,5.42
2019-05-22T11:30:35.417Z,5.12
2019-05-22T11:33:01.527Z,6.22
2019-05-22T11:35:28.437Z,6.35
2019-05-22T11:37:54.293Z,9.80
2019-05-22T11:40:20.206Z,9.03
2019-05-22T11:42:46.101Z,7.53
2019-05-22T11:45:12.396Z,9.15
2019-05-22T11:47:38.841Z,8.43
2019-05-22T11:50:04.948Z,8.20
2019-05-22T11:52:31.081Z,9.70
2019-05-22T11:54:56.789Z,6.83
2019-05-22T11:57:22.836Z,7.53
2019-05-22T11:59:48.650Z,10.63
2019-05-22T12:02:14.690Z,9.33
2019-05-22T12:04:47.732Z,6.10
2019-05-22T12:07:08.195Z,10.25
2019-05-22T12:09:34.001Z,8.73
2019-05-22T12:12:00.037Z,8.75
2019-05-22T12:14:26.453Z,10.60
2019-05-22T12:16:53.175Z,12.03
2019-05-22T12:19:19.524Z,10.18
2019-05-22T12:21:45.542Z,9.73
2019-05-22T12:24:26.156Z,8.33
2019-05-22T12:26:39.421Z,10.63
2019-05-22T12:29:05.258Z,10.72
2019-05-22T12:31:31.477Z,8.50
2019-05-22T12:33:57.325Z,6.95
2019-05-22T12:36:23.141Z,5.75
2019-05-22T12:38:49.313Z,5.42
2019-05-22T12:41:16.324Z,7.35
2019-05-22T12:43:44.796Z,7.70
2019-05-22T12:46:09.795Z,9.53
2019-05-22T12:48:36.042Z,9.55
2019-05-22T12:51:01.863Z,6.40
2019-05-22T12:53:28.525Z,5.65
2019-05-22T12:55:54.636Z,8.73
2019-05-22T12:58:20.412Z,9.38
2019-05-22T13:00:46.581Z,9.20
2019-05-22T13:03:13.026Z,8.23
2019-05-22T13:05:38.856Z,8.13
2019-05-22T13:08:04.975Z,12.05
2019-05-22T13:10:31.310Z,10.00
2019-05-22T13:12:57.132Z,10.08
2019-05-22T13:15:23.172Z,11.88
2019-05-22T13:17:49.084Z,10.85
2019-05-22T13:20:17.234Z,8.08
2019-05-22T13:22:43.365Z,9.33
2019-05-22T13:25:09.411Z,9.13
2019-05-22T13:27:36.105Z,8.60
2019-05-22T13:30:03.899Z,9.68
2019-05-22T13:32:29.700Z,7.55
2019-05-22T13:34:55.550Z,9.93
2019-05-22T13:37:21.684Z,8.53
2019-05-22T13:39:47.510Z,7.05
2019-05-22T13:42:13.640Z,8.35
2019-05-22T13:44:39.897Z,7.47
2019-05-22T13:47:06.823Z,8.28
2019-05-22T13:49:34.597Z,8.08
2019-05-22T13:52:00.566Z,6.92
2019-05-22T13:54:26.872Z,4.85
2019-05-22T13:56:53.404Z,6.05
2019-05-22T13:59:19.250Z,5.95
2019-05-22T14:01:45.065Z,4.67
2019-05-22T14:04:10.891Z,4.55
2019-05-22T14:06:36.924Z,4.65
2019-05-22T14:09:04.158Z,6.45
2019-05-22T14:11:30.133Z,4.72
2019-05-22T14:13:56.151Z,4.53
2019-05-22T14:16:22.085Z,8.10
2019-05-22T14:18:47.900Z,7.30
2019-05-22T14:21:13.753Z,6.03
2019-05-22T14:23:39.769Z,9.63
2019-05-22T14:26:05.870Z,10.10
2019-05-22T14:28:32.127Z,7.08
2019-05-22T14:30:58.056Z,6.05
2019-05-22T14:33:27.609Z,5.35
2019-05-22T14:35:51.910Z,5.75
2019-05-22T14:38:17.742Z,6.72
2019-05-22T14:40:43.565Z,6.92
2019-05-22T14:43:09.411Z,5.92
2019-05-22T14:45:35.417Z,6.15
2019-05-22T14:48:01.530Z,7.20
2019-05-22T14:50:32.558Z,6.40
2019-05-22T14:52:56.929Z,6.28
2019-05-22T14:55:22.757Z,6.40
2019-05-22T14:57:49.808Z,4.42
2019-05-22T15:00:17.549Z,4.25
2019-05-22T15:02:43.469Z,4.30
2019-05-22T15:05:09.630Z,4.12
2019-05-22T15:07:35.464Z,6.15
2019-05-22T15:10:01.499Z,6.53
2019-05-22T15:12:28.511Z,7.00
2019-05-22T15:14:54.316Z,8.00
2019-05-22T15:17:31.726Z,6.95
2019-05-22T15:19:48.005Z,5.83
2019-05-22T15:22:13.930Z,6.72
2019-05-22T15:24:39.738Z,5.58
2019-05-22T15:27:07.583Z,5.67
2019-05-22T15:29:33.410Z,5.78
2019-05-22T15:31:59.526Z,5.03
2019-05-22T15:34:25.900Z,6.40
2019-05-22T15:36:52.221Z,6.80
2019-05-22T15:39:20.547Z,5.75
2019-05-22T15:41:46.727Z,4.20
2019-05-22T15:44:12.517Z,3.10
2019-05-22T15:46:39.857Z,3.35
2019-05-22T15:49:05.912Z,3.08
2019-05-22T15:51:32.263Z,4.47
2019-05-22T15:53:59.260Z,4.45
2019-05-22T15:56:26.550Z,5.90
2019-05-22T15:58:52.865Z,6.53
2019-05-22T16:01:19.586Z,5.55
2019-05-22T16:03:45.646Z,4.45
2019-05-22T16:06:12.070Z,8.15
2019-05-22T16:08:37.925Z,6.33
2019-05-22T16:11:04.042Z,4.58
2019-05-22T16:13:32.157Z,4.42
2019-05-22T16:15:59.175Z,4.30
2019-05-22T16:18:25.926Z,3.08
2019-05-22T16:20:52.543Z,2.55
2019-05-22T16:23:21.333Z,2.77
2019-05-22T16:25:46.929Z,4.12
2019-05-22T16:28:13.188Z,2.80
2019-05-22T16:30:39.506Z,2.22
2019-05-22T16:33:06.161Z,2.98
2019-05-22T16:35:32.073Z,3.12
2019-05-22T16:37:57.916Z,2.77
2019-05-22T16:40:25.337Z,3.42
2019-05-22T16:42:52.476Z,2.90
2019-05-22T16:45:18.286Z,3.22
2019-05-22T16:47:44.553Z,2.60
2019-05-22T16:50:10.398Z,3.45
2019-05-22T16:52:36.205Z,2.20
2019-05-22T16:55:02.442Z,2.67
2019-05-22T16:57:28.458Z,2.00
2019-05-22T16:59:54.310Z,2.15
2019-05-22T17:02:20.428Z,2.12
2019-05-22T17:04:46.272Z,1.70
2019-05-22T17:07:13.367Z,1.45
2019-05-22T17:09:40.321Z,1.90
2019-05-22T17:12:07.246Z,1.90
2019-05-22T17:14:33.436Z,1.87
2019-05-22T17:16:59.253Z,1.60
2019-05-22T17:19:27.585Z,1.62
2019-05-22T17:21:53.128Z,2.55
2019-05-22T17:24:19.582Z,2.12
2019-05-22T17:26:45.593Z,2.65
2019-05-22T17:29:11.566Z,2.47
2019-05-22T17:31:37.495Z,3.02
2019-05-22T17:34:04.121Z,2.08
2019-05-22T17:36:30.130Z,1.55
2019-05-22T17:38:56.685Z,1.50
2019-05-22T17:41:24.244Z,1.20
2019-05-22T17:43:50.069Z,0.95
2019-05-22T17:46:16.396Z,1.20
2019-05-22T17:48:42.141Z,1.00
2019-05-22T17:51:08.888Z,1.12
2019-05-22T17:53:35.020Z,1.05
2019-05-22T17:56:00.961Z,1.30
2019-05-22T17:58:29.937Z,0.70
2019-05-22T18:00:55.058Z,0.72
2019-05-22T18:03:21.381Z,0.90
2019-05-22T18:05:48.429Z,0.62
2019-05-22T18:08:14.793Z,0.82
2019-05-22T18:10:41.116Z,1.40
2019-05-22T18:13:09.360Z,1.45
2019-05-22T18:15:35.486Z,0.80
2019-05-22T18:18:01.568Z,0.90
2019-05-22T18:20:41.739Z,1.10
2019-05-22T18:22:55.025Z,1.25
2019-05-22T18:25:21.318Z,0.78
2019-05-22T18:27:48.035Z,0.60
2019-05-22T18:30:14.489Z,0.60
2019-05-22T18:32:40.645Z,0.60
2019-05-22T18:35:06.445Z,0.78
2019-05-22T18:37:32.271Z,0.78
2019-05-22T18:39:58.394Z,0.80
2019-05-22T18:42:24.448Z,0.57
2019-05-22T18:44:50.260Z,0.40
2019-05-22T18:47:16.568Z,0.60
2019-05-22T18:49:42.491Z,0.50
2019-05-22T18:52:08.512Z,0.50
2019-05-22T18:54:34.239Z,0.40
2019-05-22T18:57:00.087Z,0.50
2019-05-22T18:59:26.093Z,0.50
2019-05-22T19:01:52.046Z,0.60
2019-05-22T19:04:17.861Z,0.40
2019-05-22T19:06:43.720Z,0.50
2019-05-22T19:09:09.529Z,0.60
2019-05-22T19:11:35.793Z,0.70
2019-05-22T19:14:01.584Z,0.70
2019-05-22T19:16:28.222Z,0.70
2019-05-22T19:18:54.336Z,0.40
2019-05-22T19:21:20.211Z,0.50
2019-05-22T19:23:46.265Z,0.60
2019-05-22T19:26:12.202Z,0.40
2019-05-22T19:28:43.918Z,0.40
2019-05-22T19:31:06.254Z,0.55
2019-05-22T19:33:32.084Z,0.42
2019-05-22T19:35:58.048Z,0.60
2019-05-22T19:38:23.877Z,0.70
2019-05-22T19:40:49.996Z,0.50
2019-05-22T19:43:16.129Z,0.75
2019-05-22T19:45:42.634Z,1.15
2019-05-22T19:48:09.488Z,1.70
2019-05-22T19:50:36.505Z,1.62
2019-05-22T19:53:18.188Z,1.50
2019-05-22T19:55:33.597Z,1.70
2019-05-22T19:57:59.361Z,2.42
2019-05-22T20:00:25.794Z,4.50
2019-05-22T20:02:51.721Z,3.55
2019-05-22T20:05:18.142Z,2.90
2019-05-22T20:07:44.229Z,2.50
2019-05-22T20:10:10.828Z,2.20
2019-05-22T20:12:36.577Z,2.83
2019-05-22T20:15:02.376Z,2.50
2019-05-22T20:17:28.149Z,1.80
2019-05-22T20:19:53.948Z,2.33
2019-05-22T20:22:20.494Z,2.45
2019-05-22T20:24:46.712Z,2.50
2019-05-22T20:27:12.829Z,3.62
2019-05-22T20:29:39.064Z,3.58
2019-05-22T20:32:06.256Z,2.98
2019-05-22T20:34:32.280Z,3.87
2019-05-22T20:36:58.449Z,3.25
2019-05-22T20:39:29.378Z,2.90
2019-05-22T20:41:53.430Z,2.90
2019-05-22T20:44:19.792Z,3.02
2019-05-22T20:46:45.986Z,2.50
2019-05-22T20:49:12.106Z,2.50
2019-05-22T20:51:37.941Z,2.92
2019-05-22T20:54:04.463Z,2.55
2019-05-22T20:56:31.228Z,4.12
2019-05-22T20:58:57.121Z,5.12
2019-05-22T21:01:24.376Z,7.28
2019-05-22T21:03:50.235Z,7.75
2019-05-22T21:06:16.634Z,7.22
2019-05-22T21:08:42.753Z,3.95
2019-05-22T21:11:09.089Z,3.17
2019-05-22T21:13:34.901Z,3.30
2019-05-22T21:16:02.636Z,3.92
2019-05-22T21:18:30.301Z,4.17
2019-05-22T21:20:56.348Z,7.85
2019-05-22T21:23:22.768Z,4.53
2019-05-22T21:25:48.793Z,3.12
2019-05-22T21:28:14.837Z,2.30
2019-05-22T21:30:40.948Z,1.77
2019-05-22T21:33:07.785Z,1.60
2019-05-22T21:35:33.500Z,1.42
2019-05-22T21:37:59.336Z,1.90
2019-05-22T21:40:25.648Z,1.90
2019-05-22T21:42:51.414Z,2.50
2019-05-22T21:45:17.503Z,3.02
2019-05-22T21:47:43.337Z,1.40
2019-05-22T21:50:09.753Z,1.75
2019-05-22T21:52:35.585Z,1.32
2019-05-22T21:55:01.981Z,1.50
2019-05-22T21:57:28.021Z,2.10
2019-05-22T21:59:53.838Z,4.42
2019-05-22T22:02:23.478Z,2.25
2019-05-22T22:04:50.693Z,2.03
2019-05-22T22:07:17.830Z,1.70
2019-05-22T22:09:43.967Z,1.52
2019-05-22T22:12:10.118Z,1.52
2019-05-22T22:14:36.412Z,1.35
2019-05-22T22:17:03.027Z,1.90
2019-05-22T22:19:29.109Z,2.25
2019-05-22T22:21:55.524Z,1.52
2019-05-22T22:24:22.501Z,1.98
2019-05-22T22:26:48.369Z,1.80
2019-05-22T22:29:14.693Z,1.70
2019-05-22T22:31:41.215Z,2.05
2019-05-22T22:34:18.562Z,1.80
2019-05-22T22:36:44.576Z,1.92
2019-05-22T22:39:11.525Z,2.05
2019-05-22T22:41:37.334Z,2.47
2019-05-22T22:44:03.426Z,2.80
2019-05-22T22:46:31.193Z,2.20
2019-05-22T22:48:58.892Z,1.77
2019-05-22T22:51:25.504Z,1.55
2019-05-22T22:53:53.052Z,1.60
2019-05-22T22:56:19.064Z,1.80
2019-05-22T22:58:45.218Z,1.20
2019-05-22T23:01:14.624Z,1.40
2019-05-22T23:03:40.338Z,1.90
2019-05-22T23:06:06.750Z,1.05
2019-05-22T23:08:32.869Z,1.00
2019-05-22T23:10:59.376Z,0.57
2019-05-22T23:13:25.594Z,0.50
2019-05-22T23:15:52.941Z,0.60
2019-05-22T23:18:39.389Z,0.80
2019-05-22T23:21:09.052Z,0.90
2019-05-22T23:23:34.475Z,1.12
2019-05-22T23:26:01.796Z,0.70
2019-05-22T23:28:34.665Z,0.70
2019-05-22T23:30:56.717Z,0.90
2019-05-22T23:33:23.528Z,1.60
2019-05-22T23:35:49.590Z,1.92
2019-05-22T23:38:15.704Z,1.55
2019-05-22T23:40:41.422Z,0.90
2019-05-22T23:43:08.176Z,1.10
2019-05-22T23:45:35.050Z,2.85
2019-05-22T23:48:02.929Z,2.70
2019-05-22T23:50:31.325Z,2.27
2019-05-22T23:52:57.822Z,3.20
2019-05-22T23:55:23.642Z,6.42
2019-05-22T23:57:50.685Z,5.12
